Time,TemperatureF,DewpointF,PressureIn,WindDirection,WindDirectionDegrees,WindSpeedMPH,WindSpeedGustMPH,Humidity,HourlyPrecipIn,Conditions,Clouds,dailyrainin,SoftwareType,DateUTC
2013-02-18 00:00:00,11.5,6.0,30.26,West,273,1.0,1.0,78,0.00,,,0.00,Wunderground v.1.15,2013-02-18 05:00:00,
2013-02-18 00:05:00,11.5,6.0,30.26,West,262,1.0,2.0,78,0.00,,,0.00,Wunderground v.1.15,2013-02-18 05:05:00,
2013-02-18 00:10:00,11.5,6.0,30.26,SW,232,1.0,1.0,78,0.00,,,0.00,Wunderground v.1.15,2013-02-18 05:10:00,
2013-02-18 00:15:00,11.6,6.1,30.26,WNW,288,1.0,2.0,78,0.00,,,0.00,Wunderground v.1.15,2013-02-18 05:15:00,
2013-02-18 00:25:00,11.8,6.3,30.26,WSW,242,1.0,1.0,78,0.00,,,0.00,Wunderground v.1.15,2013-02-18 05:25:00,
2013-02-18 00:35:00,11.9,6.4,30.25,NNW,330,1.0,2.0,78,0.00,,,0.00,Wunderground v.1.15,2013-02-18 05:35:00,
2013-02-18 00:45:00,12.0,6.7,30.26,WSW,238,1.0,3.0,79,0.00,,,0.00,Wunderground v.1.15,2013-02-18 05:45:00,
2013-02-18 00:50:00,12.0,6.7,30.26,WSW,246,1.0,2.0,79,0.00,,,0.00,Wunderground v.1.15,2013-02-18 05:50:00,
2013-02-18 00:55:00,12.0,6.7,30.26,West,264,1.0,2.0,79,0.00,,,0.00,Wunderground v.1.15,2013-02-18 05:55:00,
2013-02-18 01:05:00,12.0,6.7,30.26,WSW,255,1.0,2.0,79,0.00,,,0.00,Wunderground v.1.15,2013-02-18 06:05:00,
2013-02-18 01:15:00,12.0,6.7,30.26,WSW,245,1.0,1.0,79,0.00,,,0.00,Wunderground v.1.15,2013-02-18 06:15:00,
2013-02-18 01:20:00,11.9,6.6,30.26,SW,226,1.0,1.0,79,0.00,,,0.00,Wunderground v.1.15,2013-02-18 06:20:00,
2013-02-18 01:30:00,11.7,6.4,30.26,SW,215,0.0,0.0,79,0.00,,,0.00,Wunderground v.1.15,2013-02-18 06:30:00,
2013-02-18 01:40:00,11.8,6.8,30.27,WSW,237,0.0,2.0,80,0.00,,,0.00,Wunderground v.1.15,2013-02-18 06:40:00,
2013-02-18 01:50:00,11.9,6.9,30.27,WSW,246,2.0,2.0,80,0.00,,,0.00,Wunderground v.1.15,2013-02-18 06:50:00,
2013-02-18 02:01:00,11.9,6.6,30.27,West,263,1.0,1.0,79,0.00,,,0.00,Wunderground v.1.15,2013-02-18 07:01:00,
2013-02-18 02:10:00,11.7,6.7,30.27,SW,234,1.0,1.0,80,0.00,,,0.00,Wunderground v.1.15,2013-02-18 07:10:00,
2013-02-18 02:15:00,11.6,6.3,30.27,South,181,1.0,2.0,79,0.00,,,0.00,Wunderground v.1.15,2013-02-18 07:15:00,
2013-02-18 02:25:00,11.3,6.3,30.27,West,260,1.0,1.0,80,0.00,,,0.00,Wunderground v.1.15,2013-02-18 07:25:00,
2013-02-18 02:30:00,11.1,6.1,30.27,WSW,257,0.0,0.0,80,0.00,,,0.00,Wunderground v.1.15,2013-02-18 07:30:00,
2013-02-18 02:35:00,11.0,6.0,30.28,WSW,239,0.0,0.0,80,0.00,,,0.00,Wunderground v.1.15,2013-02-18 07:35:00,
2013-02-18 02:45:00,10.9,5.9,30.28,West,273,1.0,1.0,80,0.00,,,0.00,Wunderground v.1.15,2013-02-18 07:45:00,
2013-02-18 02:50:00,10.9,5.9,30.28,WSW,255,1.0,1.0,80,0.00,,,0.00,Wunderground v.1.15,2013-02-18 07:50:00,
2013-02-18 02:55:00,10.9,5.9,30.28,West,281,1.0,3.0,80,0.00,,,0.00,Wunderground v.1.15,2013-02-18 07:55:00,
2013-02-18 03:05:00,10.9,6.2,30.28,WSW,239,0.0,1.0,81,0.00,,,0.00,Wunderground v.1.15,2013-02-18 08:05:00,
2013-02-18 03:15:00,10.9,6.5,30.28,SW,228,0.0,0.0,82,0.00,,,0.00,Wunderground v.1.15,2013-02-18 08:15:00,
2013-02-18 03:20:00,10.9,6.5,30.28,NW,322,0.0,0.0,82,0.00,,,0.00,Wunderground v.1.15,2013-02-18 08:20:00,
2013-02-18 03:30:00,10.8,6.7,30.28,WSW,250,0.0,0.0,83,0.00,,,0.00,Wunderground v.1.15,2013-02-18 08:30:00,
2013-02-18 03:35:00,10.9,6.5,30.28,WSW,246,0.0,0.0,82,0.00,,,0.00,Wunderground v.1.15,2013-02-18 08:35:00,
2013-02-18 03:40:00,11.0,6.6,30.28,WSW,252,0.0,0.0,82,0.00,,,0.00,Wunderground v.1.15,2013-02-18 08:40:00,
2013-02-18 03:45:00,11.0,6.6,30.29,SSE,165,0.0,0.0,82,0.00,,,0.00,Wunderground v.1.15,2013-02-18 08:45:00,
2013-02-18 03:50:00,11.0,6.6,30.29,SW,231,0.0,0.0,82,0.00,,,0.00,Wunderground v.1.15,2013-02-18 08:50:00,
2013-02-18 04:00:00,11.1,6.7,30.29,West,269,0.0,0.0,82,0.00,,,0.00,Wunderground v.1.15,2013-02-18 09:00:00,
2013-02-18 04:10:00,11.0,6.6,30.29,SW,226,0.0,0.0,82,0.00,,,0.00,Wunderground v.1.15,2013-02-18 09:10:00,
2013-02-18 04:15:00,10.9,6.5,30.29,SW,226,0.0,0.0,82,0.00,,,0.00,Wunderground v.1.15,2013-02-18 09:15:00,
2013-02-18 04:20:00,10.8,6.7,30.29,SW,226,0.0,0.0,83,0.00,,,0.00,Wunderground v.1.15,2013-02-18 09:20:00,
2013-02-18 04:25:00,10.7,6.6,30.29,SSW,193,0.0,0.0,83,0.00,,,0.00,Wunderground v.1.15,2013-02-18 09:25:00,
2013-02-18 04:35:00,10.5,6.4,30.29,SSW,193,0.0,0.0,83,0.00,,,0.00,Wunderground v.1.15,2013-02-18 09:35:00,
2013-02-18 04:40:00,10.5,6.6,30.30,SSW,193,0.0,0.0,84,0.00,,,0.00,Wunderground v.1.15,2013-02-18 09:40:00,
2013-02-18 04:50:00,10.2,6.3,30.30,SSW,193,0.0,0.0,84,0.00,,,0.00,Wunderground v.1.15,2013-02-18 09:50:00,
2013-02-18 04:55:00,10.2,6.6,30.30,SSW,193,0.0,0.0,85,0.00,,,0.00,Wunderground v.1.15,2013-02-18 09:55:00,
2013-02-18 05:01:00,10.2,6.6,30.30,SSW,193,0.0,0.0,85,0.00,,,0.00,Wunderground v.1.15,2013-02-18 10:01:00,
2013-02-18 05:10:00,9.9,6.3,30.30,SSW,193,0.0,0.0,85,0.00,,,0.00,Wunderground v.1.15,2013-02-18 10:10:00,
2013-02-18 05:20:00,9.6,6.3,30.30,SSW,193,0.0,0.0,86,0.00,,,0.00,Wunderground v.1.15,2013-02-18 10:20:00,
2013-02-18 05:25:00,9.6,6.3,30.30,SSW,193,0.0,0.0,86,0.00,,,0.00,Wunderground v.1.15,2013-02-18 10:25:00,
2013-02-18 05:35:00,9.6,6.5,30.30,SSW,193,0.0,0.0,87,0.00,,,0.00,Wunderground v.1.15,2013-02-18 10:35:00,
2013-02-18 05:40:00,9.3,6.0,30.31,SSW,193,0.0,0.0,86,0.00,,,0.00,Wunderground v.1.15,2013-02-18 10:40:00,
2013-02-18 05:50:00,8.9,5.8,30.30,SSW,193,0.0,0.0,87,0.00,,,0.00,Wunderground v.1.15,2013-02-18 10:50:00,
2013-02-18 05:55:00,8.7,5.6,30.30,SSW,193,0.0,0.0,87,0.00,,,0.00,Wunderground v.1.15,2013-02-18 10:55:00,
2013-02-18 06:05:00,8.3,5.2,30.30,SSW,193,0.0,0.0,87,0.00,,,0.00,Wunderground v.1.15,2013-02-18 11:05:00,
2013-02-18 06:10:00,7.9,4.8,30.30,SSW,193,0.0,0.0,87,0.00,,,0.00,Wunderground v.1.15,2013-02-18 11:10:00,
2013-02-18 06:15:00,8.0,5.4,30.30,SSW,193,0.0,0.0,89,0.00,,,0.00,Wunderground v.1.15,2013-02-18 11:15:00,
2013-02-18 06:20:00,8.0,5.4,30.30,SSW,193,0.0,0.0,89,0.00,,,0.00,Wunderground v.1.15,2013-02-18 11:20:00,
2013-02-18 06:30:00,8.4,6.1,30.30,SSW,193,0.0,0.0,90,0.00,,,0.00,Wunderground v.1.15,2013-02-18 11:30:00,
2013-02-18 06:35:00,8.7,6.4,30.31,SSE,157,0.0,0.0,90,0.00,,,0.00,Wunderground v.1.15,2013-02-18 11:35:00,
2013-02-18 06:40:00,9.4,7.3,30.31,South,190,0.0,0.0,91,0.00,,,0.00,Wunderground v.1.15,2013-02-18 11:40:00,
2013-02-18 06:50:00,10.4,8.0,30.31,SSE,163,0.0,0.0,90,0.00,,,0.00,Wunderground v.1.15,2013-02-18 11:50:00,
2013-02-18 06:55:00,10.9,8.3,30.31,SSE,162,0.0,0.0,89,0.00,,,0.00,Wunderground v.1.15,2013-02-18 11:55:00,
2013-02-18 07:05:00,11.3,8.2,30.31,South,172,0.0,1.0,87,0.00,,,0.00,Wunderground v.1.15,2013-02-18 12:05:00,
2013-02-18 07:15:00,11.6,8.2,30.31,South,179,0.0,1.0,86,0.00,,,0.00,Wunderground v.1.15,2013-02-18 12:15:00,
2013-02-18 07:20:00,11.8,8.2,30.31,SSE,165,0.0,0.0,85,0.00,,,0.00,Wunderground v.1.15,2013-02-18 12:20:00,
2013-02-18 07:25:00,11.9,8.3,30.31,SSE,165,0.0,0.0,85,0.00,,,0.00,Wunderground v.1.15,2013-02-18 12:25:00,
2013-02-18 07:35:00,12.4,8.7,30.31,SE,144,0.0,0.0,85,0.00,,,0.00,Wunderground v.1.15,2013-02-18 12:35:00,
2013-02-18 07:40:00,12.8,9.1,30.30,SSE,153,0.0,0.0,85,0.00,,,0.00,Wunderground v.1.15,2013-02-18 12:40:00,
2013-02-18 07:45:00,13.2,9.3,30.30,SSE,152,0.0,0.0,84,0.00,,,0.00,Wunderground v.1.15,2013-02-18 12:45:00,
2013-02-18 07:55:00,14.0,10.1,30.30,SSE,153,0.0,0.0,84,0.00,,,0.00,Wunderground v.1.15,2013-02-18 12:55:00,
2013-02-18 08:00:00,14.7,10.5,30.30,ESE,118,0.0,0.0,83,0.00,,,0.00,Wunderground v.1.15,2013-02-18 13:00:00,
2013-02-18 08:10:00,15.6,10.2,30.30,South,183,0.0,0.0,79,0.00,,,0.00,Wunderground v.1.15,2013-02-18 13:10:00,
2013-02-18 08:20:00,15.7,10.1,30.30,SW,228,1.0,1.0,78,0.00,,,0.00,Wunderground v.1.15,2013-02-18 13:20:00,
2013-02-18 08:25:00,16.0,10.1,30.30,SSE,155,1.0,1.0,77,0.00,,,0.00,Wunderground v.1.15,2013-02-18 13:25:00,
2013-02-18 08:30:00,16.2,10.3,30.30,SSE,156,2.0,2.0,77,0.00,,,0.00,Wunderground v.1.15,2013-02-18 13:30:00,
2013-02-18 08:40:00,16.8,10.5,30.30,SSW,200,1.0,1.0,76,0.00,,,0.00,Wunderground v.1.15,2013-02-18 13:40:00,
2013-02-18 08:50:00,17.8,11.2,30.30,SSW,197,1.0,1.0,75,0.00,,,0.00,Wunderground v.1.15,2013-02-18 13:50:00,
2013-02-18 08:55:00,18.4,11.5,30.30,SE,145,1.0,4.0,74,0.00,,,0.00,Wunderground v.1.15,2013-02-18 13:55:00,
2013-02-18 09:05:00,19.0,11.5,30.30,SSE,159,2.0,2.0,72,0.00,,,0.00,Wunderground v.1.15,2013-02-18 14:05:00,
2013-02-18 09:15:00,20.0,12.1,30.30,South,181,1.0,3.0,71,0.00,,,0.00,Wunderground v.1.15,2013-02-18 14:15:00,
2013-02-18 09:20:00,20.5,12.3,30.30,SSE,164,1.0,1.0,70,0.00,,,0.00,Wunderground v.1.15,2013-02-18 14:20:00,
2013-02-18 09:30:00,21.1,12.2,30.29,SE,142,2.0,2.0,68,0.00,,,0.00,Wunderground v.1.15,2013-02-18 14:30:00,
2013-02-18 09:40:00,21.6,12.3,30.29,SSE,150,2.0,2.0,67,0.00,,,0.00,Wunderground v.1.15,2013-02-18 14:40:00,
2013-02-18 09:45:00,22.1,13.1,30.29,SSE,148,1.0,2.0,68,0.00,,,0.00,Wunderground v.1.15,2013-02-18 14:45:00,
2013-02-18 09:50:00,22.6,12.9,30.29,SE,142,1.0,2.0,66,0.00,,,0.00,Wunderground v.1.15,2013-02-18 14:50:00,
2013-02-18 10:00:00,22.8,13.5,30.29,WSW,252,2.0,2.0,67,0.00,,,0.00,Wunderground v.1.15,2013-02-18 15:00:00,
2013-02-18 10:05:00,23.6,14.2,30.29,SE,142,2.0,3.0,67,0.00,,,0.00,Wunderground v.1.15,2013-02-18 15:05:00,
2013-02-18 10:10:00,23.8,14.1,30.28,SE,143,2.0,2.0,66,0.00,,,0.00,Wunderground v.1.15,2013-02-18 15:10:00,
2013-02-18 10:20:00,24.4,15.0,30.28,WNW,285,3.0,3.0,67,0.00,,,0.00,Wunderground v.1.15,2013-02-18 15:20:00,
2013-02-18 10:25:00,24.2,15.2,30.28,SSW,198,3.0,3.0,68,0.00,,,0.00,Wunderground v.1.15,2013-02-18 15:25:00,
2013-02-18 10:35:00,24.2,15.2,30.27,SSE,156,3.0,5.0,68,0.00,,,0.00,Wunderground v.1.15,2013-02-18 15:35:00,
2013-02-18 10:45:00,23.7,15.0,30.27,SW,230,3.0,3.0,69,0.00,,,0.00,Wunderground v.1.15,2013-02-18 15:45:00,
2013-02-18 10:50:00,24.2,15.2,30.27,South,174,3.0,4.0,68,0.00,,,0.00,Wunderground v.1.15,2013-02-18 15:50:00,
2013-02-18 11:00:00,24.4,15.3,30.27,South,184,3.0,3.0,68,0.00,,,0.00,Wunderground v.1.15,2013-02-18 16:00:00,
2013-02-18 11:10:00,25.2,15.8,30.27,SSW,194,2.0,3.0,67,0.00,,,0.00,Wunderground v.1.15,2013-02-18 16:10:00,
2013-02-18 11:15:00,25.3,15.5,30.26,SE,128,3.0,5.0,66,0.00,,,0.00,Wunderground v.1.15,2013-02-18 16:15:00,
2013-02-18 11:20:00,25.7,16.3,30.26,SW,231,2.0,4.0,67,0.00,,,0.00,Wunderground v.1.15,2013-02-18 16:20:00,
2013-02-18 11:30:00,26.2,15.7,30.25,WSW,252,3.0,3.0,64,0.00,,,0.00,Wunderground v.1.15,2013-02-18 16:30:00,
2013-02-18 11:35:00,26.5,15.6,30.25,SE,127,3.0,3.0,63,0.00,,,0.00,Wunderground v.1.15,2013-02-18 16:35:00,
2013-02-18 11:40:00,26.6,15.7,30.25,SSW,212,3.0,5.0,63,0.00,,,0.00,Wunderground v.1.15,2013-02-18 16:40:00,
2013-02-18 11:50:00,26.6,14.9,30.24,SE,126,3.0,3.0,61,0.00,,,0.00,Wunderground v.1.15,2013-02-18 16:50:00,
2013-02-18 11:55:00,26.7,15.0,30.23,SSE,148,3.0,3.0,61,0.00,,,0.00,Wunderground v.1.15,2013-02-18 16:55:00,
2013-02-18 12:05:00,27.4,15.3,30.23,East,96,2.0,4.0,60,0.00,,,0.00,Wunderground v.1.15,2013-02-18 17:05:00,
2013-02-18 12:15:00,27.9,15.8,30.23,West,261,3.0,5.0,60,0.00,,,0.00,Wunderground v.1.15,2013-02-18 17:15:00,
2013-02-18 12:20:00,28.4,15.9,30.23,SW,226,2.0,2.0,59,0.00,,,0.00,Wunderground v.1.15,2013-02-18 17:20:00,
2013-02-18 12:30:00,29.4,16.0,30.22,South,174,2.0,2.0,57,0.00,,,0.00,Wunderground v.1.15,2013-02-18 17:30:00,
2013-02-18 12:35:00,29.3,15.1,30.22,South,174,1.0,5.0,55,0.00,,,0.00,Wunderground v.1.15,2013-02-18 17:35:00,
2013-02-18 12:45:00,29.9,15.7,30.21,WSW,237,2.0,2.0,55,0.00,,,0.00,Wunderground v.1.15,2013-02-18 17:45:00,
2013-02-18 12:50:00,29.8,15.2,30.21,SSW,207,2.0,2.0,54,0.00,,,0.00,Wunderground v.1.15,2013-02-18 17:50:00,
2013-02-18 12:55:00,30.2,16.0,30.20,SSE,156,2.0,5.0,55,0.00,,,0.00,Wunderground v.1.15,2013-02-18 17:55:00,
2013-02-18 13:00:00,30.1,13.7,30.20,SE,142,2.0,2.0,50,0.00,,,0.00,Wunderground v.1.15,2013-02-18 18:00:00,
2013-02-18 13:10:00,30.7,14.2,30.19,ESE,105,1.0,2.0,50,0.00,,,0.00,Wunderground v.1.15,2013-02-18 18:10:00,
2013-02-18 13:15:00,30.7,13.8,30.19,SSW,194,1.0,2.0,49,0.00,,,0.00,Wunderground v.1.15,2013-02-18 18:15:00,
2013-02-18 13:25:00,31.0,12.6,30.18,SW,224,2.0,2.0,46,0.00,,,0.00,Wunderground v.1.15,2013-02-18 18:25:00,
2013-02-18 13:31:00,31.4,12.5,30.18,WSW,240,3.0,3.0,45,0.00,,,0.00,Wunderground v.1.15,2013-02-18 18:31:00,
2013-02-18 13:40:00,31.8,13.3,30.17,SE,132,2.0,2.0,46,0.00,,,0.00,Wunderground v.1.15,2013-02-18 18:40:00,
2013-02-18 13:45:00,31.5,12.1,30.17,SW,226,2.0,2.0,44,0.00,,,0.00,Wunderground v.1.15,2013-02-18 18:45:00,
2013-02-18 13:50:00,31.5,12.6,30.17,SW,226,2.0,2.0,45,0.00,,,0.00,Wunderground v.1.15,2013-02-18 18:50:00,
2013-02-18 13:55:00,32.0,12.5,30.16,West,259,2.0,2.0,44,0.00,,,0.00,Wunderground v.1.15,2013-02-18 18:55:00,
2013-02-18 14:01:00,31.7,11.7,30.16,SE,134,3.0,3.0,43,0.00,,,0.00,Wunderground v.1.15,2013-02-18 19:01:00,
2013-02-18 14:10:00,32.1,12.6,30.15,South,189,2.0,2.0,44,0.00,,,0.00,Wunderground v.1.15,2013-02-18 19:10:00,
2013-02-18 14:20:00,31.9,11.4,30.15,East,97,3.0,3.0,42,0.00,,,0.00,Wunderground v.1.15,2013-02-18 19:20:00,
2013-02-18 14:30:00,32.3,11.7,30.16,SE,136,1.0,1.0,42,0.00,,,0.00,Wunderground v.1.15,2013-02-18 19:30:00,
2013-02-18 14:40:00,32.2,10.5,30.14,SSE,149,2.0,2.0,40,0.00,,,0.00,Wunderground v.1.15,2013-02-18 19:40:00,
2013-02-18 14:50:00,32.8,10.5,30.14,ENE,61,1.0,1.0,39,0.00,,,0.00,Wunderground v.1.15,2013-02-18 19:50:00,
2013-02-18 15:00:00,33.0,10.7,30.13,East,82,1.0,1.0,39,0.00,,,0.00,Wunderground v.1.15,2013-02-18 20:00:00,
2013-02-18 15:05:00,32.8,10.5,30.13,SE,125,2.0,2.0,39,0.00,,,0.00,Wunderground v.1.15,2013-02-18 20:05:00,
2013-02-18 15:15:00,32.9,11.2,30.12,East,89,2.0,2.0,40,0.00,,,0.00,Wunderground v.1.15,2013-02-18 20:15:00,
2013-02-18 15:25:00,32.8,12.2,30.12,NE,55,2.0,2.0,42,0.00,,,0.00,Wunderground v.1.15,2013-02-18 20:25:00,
2013-02-18 15:30:00,33.1,11.9,30.11,ENE,72,1.0,1.0,41,0.00,,,0.00,Wunderground v.1.15,2013-02-18 20:30:00,
2013-02-18 15:40:00,33.3,11.5,30.10,ESE,111,1.0,2.0,40,0.00,,,0.00,Wunderground v.1.15,2013-02-18 20:40:00,
2013-02-18 15:50:00,33.4,11.1,30.10,SE,142,2.0,2.0,39,0.00,,,0.00,Wunderground v.1.15,2013-02-18 20:50:00,
2013-02-18 15:55:00,33.7,11.9,30.10,ESE,115,1.0,2.0,40,0.00,,,0.00,Wunderground v.1.15,2013-02-18 20:55:00,
2013-02-18 16:05:00,34.1,11.7,30.10,East,93,1.0,2.0,39,0.00,,,0.00,Wunderground v.1.15,2013-02-18 21:05:00,
2013-02-18 16:10:00,34.4,12.0,30.09,South,177,1.0,3.0,39,0.00,,,0.00,Wunderground v.1.15,2013-02-18 21:10:00,
2013-02-18 16:20:00,34.1,12.8,30.09,East,98,2.0,2.0,41,0.00,,,0.00,Wunderground v.1.15,2013-02-18 21:20:00,
2013-02-18 16:25:00,33.9,13.2,30.09,ESE,102,2.0,2.0,42,0.00,,,0.00,Wunderground v.1.15,2013-02-18 21:25:00,
2013-02-18 16:35:00,33.9,14.3,30.08,ESE,104,1.0,1.0,44,0.00,,,0.00,Wunderground v.1.15,2013-02-18 21:35:00,
2013-02-18 16:40:00,33.8,13.6,30.08,ESE,121,1.0,2.0,43,0.00,,,0.00,Wunderground v.1.15,2013-02-18 21:40:00,
2013-02-18 16:45:00,33.6,14.0,30.07,ENE,68,2.0,2.0,44,0.00,,,0.00,Wunderground v.1.15,2013-02-18 21:45:00,
2013-02-18 16:50:00,33.5,14.4,30.07,East,91,2.0,2.0,45,0.00,,,0.00,Wunderground v.1.15,2013-02-18 21:50:00,
2013-02-18 17:00:00,33.3,14.2,30.07,East,98,1.0,2.0,45,0.00,,,0.00,Wunderground v.1.15,2013-02-18 22:00:00,
2013-02-18 17:10:00,33.3,14.7,30.06,ENE,70,1.0,1.0,46,0.00,,,0.00,Wunderground v.1.15,2013-02-18 22:10:00,
2013-02-18 17:20:00,33.2,14.6,30.06,East,94,1.0,1.0,46,0.00,,,0.00,Wunderground v.1.15,2013-02-18 22:20:00,
2013-02-18 17:30:00,33.2,14.6,30.05,ESE,109,0.0,0.0,46,0.00,,,0.00,Wunderground v.1.15,2013-02-18 22:30:00,
2013-02-18 17:35:00,33.1,14.5,30.05,ESE,105,0.0,1.0,46,0.00,,,0.00,Wunderground v.1.15,2013-02-18 22:35:00,
2013-02-18 17:45:00,32.9,14.8,30.05,ESE,105,0.0,0.0,47,0.00,,,0.00,Wunderground v.1.15,2013-02-18 22:45:00,
2013-02-18 17:55:00,32.2,15.2,30.05,ESE,106,0.0,0.0,49,0.00,,,0.00,Wunderground v.1.15,2013-02-18 22:55:00,
2013-02-18 18:05:00,31.8,15.3,30.05,ESE,105,0.0,0.0,50,0.00,,,0.00,Wunderground v.1.15,2013-02-18 23:05:00,
2013-02-18 18:10:00,31.8,15.7,30.04,ESE,105,0.0,0.0,51,0.00,,,0.00,Wunderground v.1.15,2013-02-18 23:10:00,
2013-02-18 18:15:00,31.7,15.6,30.04,East,90,0.0,0.0,51,0.00,,,0.00,Wunderground v.1.15,2013-02-18 23:15:00,
2013-02-18 18:25:00,31.8,15.7,30.03,East,96,0.0,0.0,51,0.00,,,0.00,Wunderground v.1.15,2013-02-18 23:25:00,
2013-02-18 18:35:00,31.9,15.3,30.02,East,84,0.0,2.0,50,0.00,,,0.00,Wunderground v.1.15,2013-02-18 23:35:00,
2013-02-18 18:45:00,32.0,15.4,30.02,ESE,114,0.0,1.0,50,0.00,,,0.00,Wunderground v.1.15,2013-02-18 23:45:00,
2013-02-18 18:50:00,32.2,15.6,30.02,ESE,103,0.0,0.0,50,0.00,,,0.00,Wunderground v.1.15,2013-02-18 23:50:00,
2013-02-18 19:00:00,32.8,15.2,30.01,East,98,1.0,2.0,48,0.00,,,0.00,Wunderground v.1.15,2013-02-19 00:00:00,
2013-02-18 19:05:00,33.1,15.0,30.01,East,95,1.0,2.0,47,0.00,,,0.00,Wunderground v.1.15,2013-02-19 00:05:00,
2013-02-18 19:10:00,33.2,15.1,30.00,ESE,103,1.0,1.0,47,0.00,,,0.00,Wunderground v.1.15,2013-02-19 00:10:00,
2013-02-18 19:20:00,33.4,15.3,30.00,ESE,120,2.0,2.0,47,0.00,,,0.00,Wunderground v.1.15,2013-02-19 00:20:00,
2013-02-18 19:30:00,33.5,15.4,29.99,ESE,121,1.0,1.0,47,0.00,,,0.00,Wunderground v.1.15,2013-02-19 00:30:00,
2013-02-18 19:35:00,33.4,15.3,29.99,SSE,148,1.0,1.0,47,0.00,,,0.00,Wunderground v.1.15,2013-02-19 00:35:00,
2013-02-18 19:40:00,33.6,15.5,29.99,SE,128,1.0,1.0,47,0.00,,,0.00,Wunderground v.1.15,2013-02-19 00:40:00,
2013-02-18 19:50:00,33.3,15.2,29.99,SE,129,0.0,1.0,47,0.00,,,0.00,Wunderground v.1.15,2013-02-19 00:50:00,
2013-02-18 19:55:00,33.2,15.6,29.99,SE,142,1.0,1.0,48,0.00,,,0.00,Wunderground v.1.15,2013-02-19 00:55:00,
2013-02-18 20:00:00,33.1,15.5,29.98,South,174,1.0,1.0,48,0.00,,,0.00,Wunderground v.1.15,2013-02-19 01:00:00,
2013-02-18 20:10:00,32.8,16.2,29.98,ESE,114,0.0,0.0,50,0.00,,,0.00,Wunderground v.1.15,2013-02-19 01:10:00,
2013-02-18 20:15:00,32.6,16.0,29.97,SE,145,0.0,0.0,50,0.00,,,0.00,Wunderground v.1.15,2013-02-19 01:15:00,
2013-02-18 20:25:00,32.6,16.4,29.96,SE,143,0.0,0.0,51,0.00,,,0.00,Wunderground v.1.15,2013-02-19 01:25:00,
2013-02-18 20:35:00,32.7,16.5,29.96,ESE,115,0.0,1.0,51,0.00,,,0.00,Wunderground v.1.15,2013-02-19 01:35:00,
2013-02-18 20:45:00,32.7,17.0,29.95,ESE,123,0.0,1.0,52,0.00,,,0.00,Wunderground v.1.15,2013-02-19 01:45:00,
2013-02-18 20:50:00,32.8,16.6,29.95,SE,141,0.0,0.0,51,0.00,,,0.00,Wunderground v.1.15,2013-02-19 01:50:00,
2013-02-18 20:55:00,32.9,16.7,29.95,ESE,110,0.0,0.0,51,0.00,,,0.00,Wunderground v.1.15,2013-02-19 01:55:00,
2013-02-18 21:05:00,33.1,16.9,29.94,SE,138,0.0,0.0,51,0.00,,,0.00,Wunderground v.1.15,2013-02-19 02:05:00,
2013-02-18 21:10:00,33.1,16.9,29.95,SE,136,0.0,0.0,51,0.00,,,0.00,Wunderground v.1.15,2013-02-19 02:10:00,
2013-02-18 21:15:00,33.0,17.3,29.94,ESE,106,0.0,0.0,52,0.00,,,0.00,Wunderground v.1.15,2013-02-19 02:15:00,
2013-02-18 21:25:00,32.9,17.6,29.94,SSE,162,0.0,0.0,53,0.00,,,0.00,Wunderground v.1.15,2013-02-19 02:25:00,
2013-02-18 21:30:00,32.7,17.4,29.94,SSE,162,0.0,0.0,53,0.00,,,0.00,Wunderground v.1.15,2013-02-19 02:30:00,
2013-02-18 21:40:00,32.2,17.0,29.94,SSE,164,0.0,0.0,53,0.00,,,0.00,Wunderground v.1.15,2013-02-19 02:40:00,
2013-02-18 21:50:00,31.6,17.7,29.93,SSE,163,0.0,0.0,56,0.00,,,0.00,Wunderground v.1.15,2013-02-19 02:50:00,
2013-02-18 22:00:00,31.2,17.7,29.92,SSE,162,0.0,0.0,57,0.00,,,0.00,Wunderground v.1.15,2013-02-19 03:00:00,
2013-02-18 22:15:00,30.9,18.2,29.92,SSE,162,0.0,0.0,59,0.00,,,0.00,Wunderground v.1.15,2013-02-19 03:15:00,
2013-02-18 22:20:00,30.9,18.6,29.92,SSE,162,0.0,0.0,60,0.00,,,0.00,Wunderground v.1.15,2013-02-19 03:20:00,
2013-02-18 22:25:00,31.1,18.8,29.92,SSE,162,0.0,0.0,60,0.00,,,0.00,Wunderground v.1.15,2013-02-19 03:25:00,
2013-02-18 22:35:00,31.7,19.8,29.91,SSE,162,0.0,0.0,61,0.00,,,0.00,Wunderground v.1.15,2013-02-19 03:35:00,
2013-02-18 22:45:00,33.0,20.2,29.91,SSE,162,0.0,0.0,59,0.00,,,0.00,Wunderground v.1.15,2013-02-19 03:45:00,
2013-02-18 22:55:00,33.5,20.3,29.90,SSE,149,0.0,0.0,58,0.00,,,0.00,Wunderground v.1.15,2013-02-19 03:55:00,
2013-02-18 23:00:00,33.6,20.8,29.89,SE,127,0.0,0.0,59,0.00,,,0.00,Wunderground v.1.15,2013-02-19 04:00:00,
2013-02-18 23:10:00,34.1,20.9,29.89,SE,128,0.0,0.0,58,0.00,,,0.00,Wunderground v.1.15,2013-02-19 04:10:00,
2013-02-18 23:15:00,34.2,20.9,29.89,SSE,155,0.0,0.0,58,0.00,,,0.00,Wunderground v.1.15,2013-02-19 04:15:00,
2013-02-18 23:20:00,34.2,21.4,29.89,SSE,162,0.0,0.0,59,0.00,,,0.00,Wunderground v.1.15,2013-02-19 04:20:00,
2013-02-18 23:30:00,34.7,21.8,29.88,SE,138,0.0,3.0,59,0.00,,,0.00,Wunderground v.1.15,2013-02-19 04:30:00,
2013-02-18 23:40:00,35.5,22.6,29.88,SSE,148,1.0,1.0,59,0.00,,,0.00,Wunderground v.1.15,2013-02-19 04:40:00,
2013-02-18 23:45:00,35.8,22.5,29.88,SW,228,1.0,2.0,58,0.00,,,0.00,Wunderground v.1.15,2013-02-19 04:45:00,
2013-02-18 23:50:00,36.2,22.8,29.88,SSE,149,1.0,1.0,58,0.00,,,0.00,Wunderground v.1.15,2013-02-19 04:50:00,